sensor_id;sensor_type;location;lat;lon;timestamp;pressure;altitude;pressure_sealevel;temperature;humidity
26823;BME280;14852;51.910;8.878;2023-03-22T00:01:18;99274.56;;;12.58;57.45
26823;BME280;14852;51.910;8.878;2023-03-22T00:03:45;99270.19;;;12.59;57.74
26823;BME280;14852;51.910;8.878;2023-03-22T00:06:11;99277.19;;;12.58;57.45
26823;BME280;14852;51.910;8.878;2023-03-22T00:08:37;99272.81;;;12.59;57.29
26823;BME280;14852;51.910;8.878;2023-03-22T00:11:04;99269.25;;;12.60;57.43
26823;BME280;14852;51.910;8.878;2023-03-22T00:13:32;99268.22;;;12.62;57.38
26823;BME280;14852;51.910;8.878;2023-03-22T00:16:03;99268.13;;;12.64;57.86
26823;BME280;14852;51.910;8.878;2023-03-22T00:18:29;99269.59;;;12.68;57.48
26823;BME280;14852;51.910;8.878;2023-03-22T00:20:57;99268.53;;;12.70;57.51
26823;BME280;14852;51.910;8.878;2023-03-22T00:23:24;99269.47;;;12.69;57.44
26823;BME280;14852;51.910;8.878;2023-03-22T00:25:51;99259.88;;;12.70;57.28
26823;BME280;14852;51.910;8.878;2023-03-22T00:28:17;99259.75;;;12.72;57.53
26823;BME280;14852;51.910;8.878;2023-03-22T00:30:57;99262.06;;;12.76;57.39
26823;BME280;14852;51.910;8.878;2023-03-22T00:33:27;99250.81;;;12.76;57.49
26823;BME280;14852;51.910;8.878;2023-03-22T00:35:58;99254.16;;;12.78;57.60
26823;BME280;14852;51.910;8.878;2023-03-22T00:38:24;99245.28;;;12.80;57.25
26823;BME280;14852;51.910;8.878;2023-03-22T00:40:52;99248.59;;;12.82;57.30
26823;BME280;14852;51.910;8.878;2023-03-22T00:43:17;99242.34;;;12.85;57.29
26823;BME280;14852;51.910;8.878;2023-03-22T00:45:43;99246.41;;;12.89;57.44
26823;BME280;14852;51.910;8.878;2023-03-22T00:48:10;99241.78;;;12.92;57.53
26823;BME280;14852;51.910;8.878;2023-03-22T00:50:38;99240.00;;;12.93;57.41
26823;BME280;14852;51.910;8.878;2023-03-22T00:53:04;99238.03;;;12.96;57.52
26823;BME280;14852;51.910;8.878;2023-03-22T00:55:30;99236.16;;;12.98;57.31
26823;BME280;14852;51.910;8.878;2023-03-22T00:57:57;99231.69;;;13.00;57.63
26823;BME280;14852;51.910;8.878;2023-03-22T01:00:23;99227.88;;;13.04;57.60
26823;BME280;14852;51.910;8.878;2023-03-22T01:02:48;99228.41;;;13.10;57.41
26823;BME280;14852;51.910;8.878;2023-03-22T01:05:19;99227.25;;;13.14;57.32
26823;BME280;14852;51.910;8.878;2023-03-22T01:07:47;99225.38;;;13.16;57.19
26823;BME280;14852;51.910;8.878;2023-03-22T01:10:16;99237.38;;;13.18;57.08
26823;BME280;14852;51.910;8.878;2023-03-22T01:12:42;99231.31;;;13.18;57.37
26823;BME280;14852;51.910;8.878;2023-03-22T01:15:09;99228.63;;;13.19;57.21
26823;BME280;14852;51.910;8.878;2023-03-22T01:17:35;99233.00;;;13.19;57.06
26823;BME280;14852;51.910;8.878;2023-03-22T01:20:01;99222.47;;;13.20;57.22
26823;BME280;14852;51.910;8.878;2023-03-22T01:22:27;99213.78;;;13.20;57.13
26823;BME280;14852;51.910;8.878;2023-03-22T01:24:53;99205.97;;;13.20;57.38
26823;BME280;14852;51.910;8.878;2023-03-22T01:27:19;99205.03;;;13.21;57.48
26823;BME280;14852;51.910;8.878;2023-03-22T01:29:45;99210.25;;;13.21;57.19
26823;BME280;14852;51.910;8.878;2023-03-22T01:32:11;99208.47;;;13.21;57.52
26823;BME280;14852;51.910;8.878;2023-03-22T01:34:37;99197.94;;;13.23;57.18
26823;BME280;14852;51.910;8.878;2023-03-22T01:37:03;99199.59;;;13.24;57.18
26823;BME280;14852;51.910;8.878;2023-03-22T01:39:30;99191.66;;;13.25;57.46
26823;BME280;14852;51.910;8.878;2023-03-22T01:41:58;99193.19;;;13.28;57.77
26823;BME280;14852;51.910;8.878;2023-03-22T01:44:30;99193.09;;;13.29;57.53
26823;BME280;14852;51.910;8.878;2023-03-22T01:46:57;99185.38;;;13.28;57.46
26823;BME280;14852;51.910;8.878;2023-03-22T01:49:31;99183.38;;;13.31;57.42
26823;BME280;14852;51.910;8.878;2023-03-22T01:52:06;99190.16;;;13.34;57.22
26823;BME280;14852;51.910;8.878;2023-03-22T01:54:53;99179.84;;;13.32;57.34
26823;BME280;14852;51.910;8.878;2023-03-22T01:57:35;99170.84;;;13.36;57.33
26823;BME280;14852;51.910;8.878;2023-03-22T02:00:08;99176.28;;;13.33;57.18
26823;BME280;14852;51.910;8.878;2023-03-22T02:03:04;99174.63;;;13.32;57.02
26823;BME280;14852;51.910;8.878;2023-03-22T02:05:36;99176.38;;;13.32;57.55
26823;BME280;14852;51.910;8.878;2023-03-22T02:08:03;99176.50;;;13.30;57.60
26823;BME280;14852;51.910;8.878;2023-03-22T02:10:41;99172.13;;;13.31;57.51
26823;BME280;14852;51.910;8.878;2023-03-22T02:13:56;99164.06;;;13.34;57.56
26823;BME280;14852;51.910;8.878;2023-03-22T02:17:24;99166.78;;;13.32;57.07
26823;BME280;14852;51.910;8.878;2023-03-22T02:29:21;99161.00;;;13.40;57.39
26823;BME280;14852;51.910;8.878;2023-03-22T02:35:37;99164.13;;;13.45;57.20
26823;BME280;14852;51.910;8.878;2023-03-22T02:41:17;99166.50;;;13.48;56.70
26823;BME280;14852;51.910;8.878;2023-03-22T02:44:21;99153.56;;;13.47;56.76
26823;BME280;14852;51.910;8.878;2023-03-22T02:47:07;99153.69;;;13.45;56.87
26823;BME280;14852;51.910;8.878;2023-03-22T02:49:54;99157.84;;;13.48;57.31
26823;BME280;14852;51.910;8.878;2023-03-22T02:52:31;99147.63;;;13.45;57.21
26823;BME280;14852;51.910;8.878;2023-03-22T02:55:33;99153.56;;;13.47;57.07
26823;BME280;14852;51.910;8.878;2023-03-22T02:58:22;99143.34;;;13.44;56.99
26823;BME280;14852;51.910;8.878;2023-03-22T03:00:56;99133.84;;;13.43;57.21
26823;BME280;14852;51.910;8.878;2023-03-22T03:03:26;99140.84;;;13.42;57.19
26823;BME280;14852;51.910;8.878;2023-03-22T03:06:09;99147.63;;;13.45;57.24
26823;BME280;14852;51.910;8.878;2023-03-22T03:08:38;99143.34;;;13.44;56.96
26823;BME280;14852;51.910;8.878;2023-03-22T03:11:05;99147.41;;;13.48;57.33
26823;BME280;14852;51.910;8.878;2023-03-22T03:13:31;99148.34;;;13.47;57.19
26823;BME280;14852;51.910;8.878;2023-03-22T03:15:58;99144.06;;;13.46;57.05
26823;BME280;14852;51.910;8.878;2023-03-22T03:18:58;99141.25;;;13.49;57.26
26823;BME280;14852;51.910;8.878;2023-03-22T03:21:53;99138.03;;;13.45;57.13
26823;BME280;14852;51.910;8.878;2023-03-22T03:24:38;99133.00;;;13.42;57.32
26823;BME280;14852;51.910;8.878;2023-03-22T03:27:18;99137.41;;;13.41;57.29
26823;BME280;14852;51.910;8.878;2023-03-22T03:30:09;99128.63;;;13.43;57.44
26823;BME280;14852;51.910;8.878;2023-03-22T03:32:57;99126.84;;;13.43;57.15
26823;BME280;14852;51.910;8.878;2023-03-22T03:35:38;99126.75;;;13.45;56.92
26823;BME280;14852;51.910;8.878;2023-03-22T03:38:14;99124.34;;;13.41;57.27
26823;BME280;14852;51.910;8.878;2023-03-22T03:40:58;99124.13;;;13.45;57.30
26823;BME280;14852;51.910;8.878;2023-03-22T03:43:25;99120.91;;;13.41;57.59
26823;BME280;14852;51.910;8.878;2023-03-22T03:45:53;99118.31;;;13.41;57.49
26823;BME280;14852;51.910;8.878;2023-03-22T03:48:32;99119.63;;;13.47;57.09
26823;BME280;14852;51.910;8.878;2023-03-22T03:51:00;99112.03;;;13.44;57.21
26823;BME280;14852;51.910;8.878;2023-03-22T03:53:28;99115.59;;;13.43;57.72
26823;BME280;14852;51.910;8.878;2023-03-22T03:55:55;99114.75;;;13.42;57.60
26823;BME280;14852;51.910;8.878;2023-03-22T03:58:21;99114.75;;;13.42;57.34
26823;BME280;14852;51.910;8.878;2023-03-22T04:00:47;99112.75;;;13.46;57.38
26823;BME280;14852;51.910;8.878;2023-03-22T04:03:27;99106.69;;;13.45;57.34
26823;BME280;14852;51.910;8.878;2023-03-22T04:06:12;99103.16;;;13.46;57.20
26823;BME280;14852;51.910;8.878;2023-03-22T04:08:43;99100.44;;;13.48;57.20
26823;BME280;14852;51.910;8.878;2023-03-22T04:11:10;99108.97;;;13.50;57.50
26823;BME280;14852;51.910;8.878;2023-03-22T04:13:37;99101.25;;;13.48;57.25
26823;BME280;14852;51.910;8.878;2023-03-22T04:16:08;99102.09;;;13.49;57.17
26823;BME280;14852;51.910;8.878;2023-03-22T04:18:36;99099.47;;;13.49;57.50
26823;BME280;14852;51.910;8.878;2023-03-22T04:21:05;99101.25;;;13.48;57.20
26823;BME280;14852;51.910;8.878;2023-03-22T04:23:40;99095.09;;;13.49;57.37
26823;BME280;14852;51.910;8.878;2023-03-22T04:26:06;99091.66;;;13.49;57.17
26823;BME280;14852;51.910;8.878;2023-03-22T04:28:42;99088.31;;;13.47;57.51
26823;BME280;14852;51.910;8.878;2023-03-22T04:31:10;99088.44;;;13.45;57.71
26823;BME280;14852;51.910;8.878;2023-03-22T04:33:46;99085.81;;;13.45;57.40
26823;BME280;14852;51.910;8.878;2023-03-22T04:36:36;99079.78;;;13.45;57.87
26823;BME280;14852;51.910;8.878;2023-03-22T04:39:20;99086.88;;;13.43;57.38
26823;BME280;14852;51.910;8.878;2023-03-22T04:41:55;99087.72;;;13.43;57.68
26823;BME280;14852;51.910;8.878;2023-03-22T04:44:21;99088.44;;;13.45;57.52
26823;BME280;14852;51.910;8.878;2023-03-22T04:46:49;99091.66;;;13.49;57.67
26823;BME280;14852;51.910;8.878;2023-03-22T04:49:16;99095.22;;;13.48;57.50
26823;BME280;14852;51.910;8.878;2023-03-22T04:51:42;99090.72;;;13.50;57.27
26823;BME280;14852;51.910;8.878;2023-03-22T04:54:21;99085.50;;;13.50;57.20
26823;BME280;14852;51.910;8.878;2023-03-22T04:56:48;99087.13;;;13.51;57.72
26823;BME280;14852;51.910;8.878;2023-03-22T04:59:17;99091.50;;;13.50;57.46
26823;BME280;14852;51.910;8.878;2023-03-22T05:01:49;99087.03;;;13.52;57.55
26823;BME280;14852;51.910;8.878;2023-03-22T05:04:20;99088.69;;;13.53;57.58
26823;BME280;14852;51.910;8.878;2023-03-22T05:06:49;99085.97;;;13.55;57.33
26823;BME280;14852;51.910;8.878;2023-03-22T05:09:23;99075.41;;;13.56;57.56
26823;BME280;14852;51.910;8.878;2023-03-22T05:11:52;99073.97;;;13.52;57.23
26823;BME280;14852;51.910;8.878;2023-03-22T05:14:24;99075.06;;;13.50;57.24
26823;BME280;14852;51.910;8.878;2023-03-22T05:16:50;99084.66;;;13.49;57.74
26823;BME280;14852;51.910;8.878;2023-03-22T05:19:16;99079.44;;;13.49;57.65
26823;BME280;14852;51.910;8.878;2023-03-22T05:21:46;99086.28;;;13.50;57.48
26823;BME280;14852;51.910;8.878;2023-03-22T05:24:13;99080.28;;;13.50;57.44
26823;BME280;14852;51.910;8.878;2023-03-22T05:26:41;99081.91;;;13.51;57.37
26823;BME280;14852;51.910;8.878;2023-03-22T05:29:09;99084.28;;;13.54;57.44
26823;BME280;14852;51.910;8.878;2023-03-22T05:31:53;99079.69;;;13.57;57.51
26823;BME280;14852;51.910;8.878;2023-03-22T05:34:20;99076.84;;;13.60;57.23
26823;BME280;14852;51.910;8.878;2023-03-22T05:36:46;99080.41;;;13.59;57.59
26823;BME280;14852;51.910;8.878;2023-03-22T05:39:32;99070.69;;;13.61;57.10
26823;BME280;14852;51.910;8.878;2023-03-22T05:41:58;99069.03;;;13.60;57.51
26823;BME280;14852;51.910;8.878;2023-03-22T05:44:24;99075.06;;;13.61;57.10
26823;BME280;14852;51.910;8.878;2023-03-22T05:47:05;99061.88;;;13.62;57.30
26823;BME280;14852;51.910;8.878;2023-03-22T05:49:38;99073.03;;;13.64;57.64
26823;BME280;14852;51.910;8.878;2023-03-22T05:52:04;99058.94;;;13.67;57.09
26823;BME280;14852;51.910;8.878;2023-03-22T05:54:45;99054.53;;;13.67;57.26
26823;BME280;14852;51.910;8.878;2023-03-22T05:57:11;99057.28;;;13.66;57.54
26823;BME280;14852;51.910;8.878;2023-03-22T05:59:37;99060.09;;;13.63;57.45
26823;BME280;14852;51.910;8.878;2023-03-22T06:02:06;99055.72;;;13.63;57.64
26823;BME280;14852;51.910;8.878;2023-03-22T06:04:32;99053.38;;;13.60;57.17
26823;BME280;14852;51.910;8.878;2023-03-22T06:07:07;99048.81;;;13.62;57.09
26823;BME280;14852;51.910;8.878;2023-03-22T06:09:40;99042.78;;;13.62;57.29
26823;BME280;14852;51.910;8.878;2023-03-22T06:12:10;99048.97;;;13.61;57.65
26823;BME280;14852;51.910;8.878;2023-03-22T06:14:37;99047.22;;;13.72;57.29
26823;BME280;14852;51.910;8.878;2023-03-22T06:17:15;99044.59;;;14.06;56.47
26823;BME280;14852;51.910;8.878;2023-03-22T06:19:41;99034.69;;;14.97;54.46
26823;BME280;14852;51.910;8.878;2023-03-22T06:22:08;99025.03;;;16.11;51.72
26823;BME280;14852;51.910;8.878;2023-03-22T06:24:36;99028.47;;;17.10;49.55
26823;BME280;14852;51.910;8.878;2023-03-22T06:27:03;99028.38;;;17.87;47.74
26823;BME280;14852;51.910;8.878;2023-03-22T06:29:30;99028.88;;;18.72;46.43
26823;BME280;14852;51.910;8.878;2023-03-22T06:31:59;99024.16;;;19.55;44.74
26823;BME280;14852;51.910;8.878;2023-03-22T06:34:25;99025.34;;;20.63;43.82
26823;BME280;14852;51.910;8.878;2023-03-22T06:36:51;99024.41;;;21.45;42.04
26823;BME280;14852;51.910;8.878;2023-03-22T06:39:32;99013.63;;;22.18;41.08
26823;BME280;14852;51.910;8.878;2023-03-22T06:41:58;99008.38;;;22.49;40.65
26823;BME280;14852;51.910;8.878;2023-03-22T06:44:25;99007.88;;;22.76;40.36
26823;BME280;14852;51.910;8.878;2023-03-22T06:46:50;99005.09;;;22.38;40.84
26823;BME280;14852;51.910;8.878;2023-03-22T06:49:41;99006.56;;;22.10;41.63
26823;BME280;14852;51.910;8.878;2023-03-22T06:52:08;98999.41;;;22.81;40.80
26823;BME280;14852;51.910;8.878;2023-03-22T06:54:35;99003.47;;;23.14;40.15
26823;BME280;14852;51.910;8.878;2023-03-22T06:57:01;99000.94;;;23.35;39.41
26823;BME280;14852;51.910;8.878;2023-03-22T06:59:27;99002.47;;;23.53;39.50
26823;BME280;14852;51.910;8.878;2023-03-22T07:01:52;99004.91;;;23.39;40.22
26823;BME280;14852;51.910;8.878;2023-03-22T07:04:18;99003.59;;;23.88;39.56
26823;BME280;14852;51.910;8.878;2023-03-22T07:06:46;99001.28;;;24.29;38.97
26823;BME280;14852;51.910;8.878;2023-03-22T07:09:12;98996.78;;;24.29;38.95
26823;BME280;14852;51.910;8.878;2023-03-22T07:11:37;98993.34;;;23.99;38.79
26823;BME280;14852;51.910;8.878;2023-03-22T07:14:03;99002.59;;;23.36;40.14
26823;BME280;14852;51.910;8.878;2023-03-22T07:16:50;98993.31;;;22.49;41.65
26823;BME280;14852;51.910;8.878;2023-03-22T07:19:18;99009.84;;;21.49;43.17
26823;BME280;14852;51.910;8.878;2023-03-22T07:21:45;99010.13;;;20.48;45.22
26823;BME280;14852;51.910;8.878;2023-03-22T07:24:12;99002.53;;;19.69;46.62
26823;BME280;14852;51.910;8.878;2023-03-22T07:26:39;99011.56;;;19.05;47.48
26823;BME280;14852;51.910;8.878;2023-03-22T07:29:06;99006.97;;;18.54;48.06
26823;BME280;14852;51.910;8.878;2023-03-22T07:31:33;98999.16;;;18.17;48.50
26823;BME280;14852;51.910;8.878;2023-03-22T07:34:05;99005.00;;;17.84;48.47
26823;BME280;14852;51.910;8.878;2023-03-22T07:36:39;99004.91;;;17.56;48.77
26823;BME280;14852;51.910;8.878;2023-03-22T07:39:08;98996.50;;;17.53;48.86
26823;BME280;14852;51.910;8.878;2023-03-22T07:41:39;99003.00;;;17.49;49.03
26823;BME280;14852;51.910;8.878;2023-03-22T07:44:23;99008.69;;;17.34;48.85
26823;BME280;14852;51.910;8.878;2023-03-22T07:47:10;99006.22;;;17.23;49.23
26823;BME280;14852;51.910;8.878;2023-03-22T07:49:45;99001.94;;;17.42;48.77
26823;BME280;14852;51.910;8.878;2023-03-22T07:52:18;98988.88;;;17.69;48.32
26823;BME280;14852;51.910;8.878;2023-03-22T07:54:43;98982.16;;;18.12;47.60
26823;BME280;14852;51.910;8.878;2023-03-22T07:57:09;98988.66;;;18.17;47.09
26823;BME280;14852;51.910;8.878;2023-03-22T07:59:41;98987.94;;;17.97;47.58
26823;BME280;14852;51.910;8.878;2023-03-22T08:02:09;99000.31;;;17.78;47.50
26823;BME280;14852;51.910;8.878;2023-03-22T08:04:41;98982.81;;;17.49;48.23
26823;BME280;14852;51.910;8.878;2023-03-22T08:07:12;98990.88;;;17.38;48.80
26823;BME280;14852;51.910;8.878;2023-03-22T08:09:39;98985.34;;;17.31;48.53
26823;BME280;14852;51.910;8.878;2023-03-22T08:12:05;98987.28;;;17.20;48.97
26823;BME280;14852;51.910;8.878;2023-03-22T08:14:32;98984.00;;;17.18;49.19
26823;BME280;14852;51.910;8.878;2023-03-22T08:16:59;98982.19;;;17.09;49.38
26823;BME280;14852;51.910;8.878;2023-03-22T08:19:25;98982.91;;;17.01;49.37
26823;BME280;14852;51.910;8.878;2023-03-22T08:21:51;98971.84;;;16.97;49.85
26823;BME280;14852;51.910;8.878;2023-03-22T08:24:34;98964.69;;;16.90;49.30
26823;BME280;14852;51.910;8.878;2023-03-22T08:27:04;98973.53;;;16.79;49.53
26823;BME280;14852;51.910;8.878;2023-03-22T08:29:39;98968.16;;;16.81;49.59
26823;BME280;14852;51.910;8.878;2023-03-22T08:32:06;98976.16;;;16.89;49.73
26823;BME280;14852;51.910;8.878;2023-03-22T08:34:41;98978.91;;;17.07;49.16
26823;BME280;14852;51.910;8.878;2023-03-22T08:37:09;98969.91;;;17.28;48.33
26823;BME280;14852;51.910;8.878;2023-03-22T08:39:37;98982.13;;;17.47;47.79
26823;BME280;14852;51.910;8.878;2023-03-22T08:42:21;98972.59;;;17.46;47.72
26823;BME280;14852;51.910;8.878;2023-03-22T08:44:47;98972.03;;;17.43;48.11
26823;BME280;14852;51.910;8.878;2023-03-22T08:47:13;98958.75;;;17.63;47.42
26823;BME280;14852;51.910;8.878;2023-03-22T08:49:41;98970.28;;;17.80;46.79
26823;BME280;14852;51.910;8.878;2023-03-22T08:52:17;98964.44;;;17.49;47.59
26823;BME280;14852;51.910;8.878;2023-03-22T08:54:57;98963.91;;;17.36;47.80
26823;BME280;14852;51.910;8.878;2023-03-22T08:57:42;98957.78;;;17.55;47.35
26823;BME280;14852;51.910;8.878;2023-03-22T09:00:23;98958.28;;;18.05;46.17
26823;BME280;14852;51.910;8.878;2023-03-22T09:03:16;98946.03;;;17.96;46.01
26823;BME280;14852;51.910;8.878;2023-03-22T09:05:42;98951.69;;;18.19;46.35
26823;BME280;14852;51.910;8.878;2023-03-22T09:08:08;98955.47;;;18.34;45.78
26823;BME280;14852;51.910;8.878;2023-03-22T09:10:39;98944.50;;;18.21;46.11
26823;BME280;14852;51.910;8.878;2023-03-22T09:13:06;98938.69;;;17.99;46.53
26823;BME280;14852;51.910;8.878;2023-03-22T09:15:32;98936.81;;;17.82;46.77
26823;BME280;14852;51.910;8.878;2023-03-22T09:18:10;98927.88;;;17.75;46.61
26823;BME280;14852;51.910;8.878;2023-03-22T09:20:37;98931.66;;;17.63;46.39
26823;BME280;14852;51.910;8.878;2023-03-22T09:23:05;98924.84;;;17.70;46.66
26823;BME280;14852;51.910;8.878;2023-03-22T09:25:31;98923.53;;;17.84;45.74
26823;BME280;14852;51.910;8.878;2023-03-22T09:27:57;98922.78;;;17.91;45.40
26823;BME280;14852;51.910;8.878;2023-03-22T09:30:23;98915.59;;;18.74;44.23
26823;BME280;14852;51.910;8.878;2023-03-22T09:32:49;98921.72;;;18.83;43.82
26823;BME280;14852;51.910;8.878;2023-03-22T09:35:15;98913.38;;;18.87;44.24
26823;BME280;14852;51.910;8.878;2023-03-22T09:37:55;98928.97;;;19.06;44.16
26823;BME280;14852;51.910;8.878;2023-03-22T09:40:29;98915.91;;;18.97;44.23
26823;BME280;14852;51.910;8.878;2023-03-22T09:43:03;98920.19;;;18.98;44.50
26823;BME280;14852;51.910;8.878;2023-03-22T09:45:40;98921.63;;;18.92;44.63
26823;BME280;14852;51.910;8.878;2023-03-22T09:48:35;98920.34;;;18.96;44.89
26823;BME280;14852;51.910;8.878;2023-03-22T09:51:06;98917.13;;;19.02;45.01
26823;BME280;14852;51.910;8.878;2023-03-22T09:53:38;98909.28;;;19.10;44.88
26823;BME280;14852;51.910;8.878;2023-03-22T10:01:58;98895.84;;;19.22;43.94
26823;BME280;14852;51.910;8.878;2023-03-22T10:07:32;98900.41;;;18.94;43.13
26823;BME280;14852;51.910;8.878;2023-03-22T10:10:14;98903.44;;;18.99;43.90
26823;BME280;14852;51.910;8.878;2023-03-22T10:13:08;98899.16;;;19.24;43.18
26823;BME280;14852;51.910;8.878;2023-03-22T10:15:54;98896.69;;;19.30;43.77
26823;BME280;14852;51.910;8.878;2023-03-22T10:21:09;98894.91;;;19.05;43.80
26823;BME280;14852;51.910;8.878;2023-03-22T10:23:48;98887.06;;;19.13;43.68
26823;BME280;14852;51.910;8.878;2023-03-22T10:26:22;98895.38;;;19.26;42.89
26823;BME280;14852;51.910;8.878;2023-03-22T10:29:01;98894.81;;;19.14;43.48
26823;BME280;14852;51.910;8.878;2023-03-22T10:31:31;98903.97;;;19.02;42.73
26823;BME280;14852;51.910;8.878;2023-03-22T10:34:26;98892.44;;;19.03;43.23
26823;BME280;14852;51.910;8.878;2023-03-22T10:37:00;98887.56;;;19.16;43.11
26823;BME280;14852;51.910;8.878;2023-03-22T10:39:34;98882.59;;;19.39;42.38
26823;BME280;14852;51.910;8.878;2023-03-22T10:42:12;98866.28;;;19.36;42.81
26823;BME280;14852;51.910;8.878;2023-03-22T10:45:02;98864.25;;;19.56;42.98
26823;BME280;14852;51.910;8.878;2023-03-22T10:47:35;98864.50;;;19.70;42.64
26823;BME280;14852;51.910;8.878;2023-03-22T10:50:12;98857.94;;;19.91;42.41
26823;BME280;14852;51.910;8.878;2023-03-22T10:52:53;98859.59;;;19.92;42.30
26823;BME280;14852;51.910;8.878;2023-03-22T10:55:19;98867.50;;;19.92;41.96
26823;BME280;14852;51.910;8.878;2023-03-22T10:58:14;98887.69;;;20.17;42.22
26823;BME280;14852;51.910;8.878;2023-03-22T11:01:02;98877.28;;;20.07;41.19
26823;BME280;14852;51.910;8.878;2023-03-22T11:03:48;98871.28;;;19.97;41.46
26823;BME280;14852;51.910;8.878;2023-03-22T11:06:27;98870.66;;;20.11;41.01
26823;BME280;14852;51.910;8.878;2023-03-22T11:09:33;98879.06;;;19.99;41.84
26823;BME280;14852;51.910;8.878;2023-03-22T11:11:59;98874.44;;;20.01;41.54
26823;BME280;14852;51.910;8.878;2023-03-22T11:19:39;98893.63;;;20.27;41.11
26823;BME280;14852;51.910;8.878;2023-03-22T11:25:12;98889.56;;;20.49;40.61
26823;BME280;14852;51.910;8.878;2023-03-22T11:28:07;98890.69;;;20.54;40.52
26823;BME280;14852;51.910;8.878;2023-03-22T11:30:35;98888.56;;;20.58;39.80
26823;BME280;14852;51.910;8.878;2023-03-22T11:33:18;98888.25;;;20.61;40.44
26823;BME280;14852;51.910;8.878;2023-03-22T11:35:52;98889.69;;;20.55;39.47
26823;BME280;14852;51.910;8.878;2023-03-22T11:38:34;98887.91;;;20.72;40.45
26823;BME280;14852;51.910;8.878;2023-03-22T11:41:06;98884.09;;;20.99;39.63
26823;BME280;14852;51.910;8.878;2023-03-22T11:43:39;98886.53;;;21.09;39.48
26823;BME280;14852;51.910;8.878;2023-03-22T11:46:08;98891.66;;;21.02;39.42
26823;BME280;14852;51.910;8.878;2023-03-22T11:48:35;98889.34;;;21.07;39.13
26823;BME280;14852;51.910;8.878;2023-03-22T11:51:14;98887.19;;;21.03;39.74
26823;BME280;14852;51.910;8.878;2023-03-22T11:53:44;98883.03;;;21.16;39.50
26823;BME280;14852;51.910;8.878;2023-03-22T11:56:26;98883.56;;;21.20;39.08
26823;BME280;14852;51.910;8.878;2023-03-22T11:58:57;98903.41;;;21.00;39.16
26823;BME280;14852;51.910;8.878;2023-03-22T12:01:39;98882.09;;;20.93;39.15
26823;BME280;14852;51.910;8.878;2023-03-22T12:04:13;98897.47;;;20.81;38.82
26823;BME280;14852;51.910;8.878;2023-03-22T12:06:41;98891.19;;;20.66;38.20
26823;BME280;14852;51.910;8.878;2023-03-22T12:09:15;98896.97;;;20.45;38.77
26823;BME280;14852;51.910;8.878;2023-03-22T12:11:47;98886.56;;;20.44;39.08
26823;BME280;14852;51.910;8.878;2023-03-22T12:17:16;98890.53;;;20.56;39.49
26823;BME280;14852;51.910;8.878;2023-03-22T12:22:51;98887.25;;;20.70;39.16
26823;BME280;14852;51.910;8.878;2023-03-22T12:25:31;98876.38;;;20.65;39.34
26823;BME280;14852;51.910;8.878;2023-03-22T12:28:04;98864.97;;;20.65;39.09
26823;BME280;14852;51.910;8.878;2023-03-22T12:30:42;98866.44;;;20.67;38.84
26823;BME280;14852;51.910;8.878;2023-03-22T12:36:03;98846.16;;;20.76;39.21
26823;BME280;14852;51.910;8.878;2023-03-22T12:38:50;98845.31;;;20.83;39.27
26823;BME280;14852;51.910;8.878;2023-03-22T12:41:40;98836.91;;;20.72;38.86
26823;BME280;14852;51.910;8.878;2023-03-22T12:44:36;98827.69;;;20.76;39.08
26823;BME280;14852;51.910;8.878;2023-03-22T12:47:34;98833.28;;;20.81;38.52
26823;BME280;14852;51.910;8.878;2023-03-22T12:50:22;98842.53;;;20.69;38.70
26823;BME280;14852;51.910;8.878;2023-03-22T12:52:52;98834.47;;;20.62;38.56
26823;BME280;14852;51.910;8.878;2023-03-22T12:55:28;98841.03;;;20.66;38.40
26823;BME280;14852;51.910;8.878;2023-03-22T12:57:54;98839.41;;;20.57;38.44
26823;BME280;14852;51.910;8.878;2023-03-22T13:00:49;98832.66;;;20.46;38.31
26823;BME280;14852;51.910;8.878;2023-03-22T13:03:28;98828.03;;;20.40;38.53
26823;BME280;14852;51.910;8.878;2023-03-22T13:06:27;98815.31;;;20.44;38.43
26823;BME280;14852;51.910;8.878;2023-03-22T13:11:34;98849.25;;;20.06;37.59
26823;BME280;14852;51.910;8.878;2023-03-22T13:14:00;98836.03;;;19.90;38.50
26823;BME280;14852;51.910;8.878;2023-03-22T13:16:54;98835.88;;;19.92;38.69
26823;BME280;14852;51.910;8.878;2023-03-22T13:19:34;98839.97;;;19.86;38.46
26823;BME280;14852;51.910;8.878;2023-03-22T13:25:34;98840.00;;;19.94;38.90
26823;BME280;14852;51.910;8.878;2023-03-22T13:28:19;98841.66;;;20.03;39.21
26823;BME280;14852;51.910;8.878;2023-03-22T13:30:50;98836.06;;;20.06;38.71
26823;BME280;14852;51.910;8.878;2023-03-22T13:36:07;98848.75;;;20.03;38.75
26823;BME280;14852;51.910;8.878;2023-03-22T13:39:00;98837.84;;;19.98;39.43
26823;BME280;14852;51.910;8.878;2023-03-22T13:41:33;98841.63;;;19.87;39.69
26823;BME280;14852;51.910;8.878;2023-03-22T13:44:28;98863.22;;;19.82;39.45
26823;BME280;14852;51.910;8.878;2023-03-22T13:46:59;98842.03;;;19.58;40.40
26823;BME280;14852;51.910;8.878;2023-03-22T13:49:51;98842.91;;;19.41;40.50
26823;BME280;14852;51.910;8.878;2023-03-22T13:52:41;98840.84;;;19.18;40.85
26823;BME280;14852;51.910;8.878;2023-03-22T13:55:40;98840.50;;;19.13;41.22
26823;BME280;14852;51.910;8.878;2023-03-22T13:58:51;98840.94;;;19.01;41.67
26823;BME280;14852;51.910;8.878;2023-03-22T14:01:41;98837.56;;;18.91;42.35
26823;BME280;14852;51.910;8.878;2023-03-22T14:04:12;98833.44;;;18.88;42.70
26823;BME280;14852;51.910;8.878;2023-03-22T14:07:07;98831.94;;;18.86;42.76
26823;BME280;14852;51.910;8.878;2023-03-22T14:09:50;98839.69;;;18.87;42.88
26823;BME280;14852;51.910;8.878;2023-03-22T14:12:44;98837.78;;;18.97;42.58
26823;BME280;14852;51.910;8.878;2023-03-22T14:15:33;98841.59;;;19.03;42.31
26823;BME280;14852;51.910;8.878;2023-03-22T14:18:26;98839.16;;;19.09;42.38
26823;BME280;14852;51.910;8.878;2023-03-22T14:21:33;98833.50;;;19.04;42.28
26823;BME280;14852;51.910;8.878;2023-03-22T14:23:56;98835.28;;;18.96;42.32
26823;BME280;14852;51.910;8.878;2023-03-22T14:26:35;98838.59;;;18.98;42.61
26823;BME280;14852;51.910;8.878;2023-03-22T14:29:16;98835.81;;;18.99;42.48
26823;BME280;14852;51.910;8.878;2023-03-22T14:31:54;98831.22;;;19.01;42.49